Impacts TAF Board INFO
FOR SITUATIONAL AWARENESS. NOT TO BE USED FOR FLIGHT PLANNING PURPOSES.
IDs:

KFLL - Ft Lauderdale-Hollyw, FL, US

Issued at 0252 UTC 13 Dec 2017
Updated at 0336 UTC 13 Dec 2017
Potential Impact None Slight Moderate High
Time<<14/04Z 14/05Z 14/06Z 14/07Z 14/08Z 14/09Z 14/10Z 14/11Z 14/12Z 14/13Z 14/14Z 14/15Z 14/16Z
Type PRVL PRVL
VIS >6 >6
CIG -- --
Cover SKC SKC
FltCat VFR VFR
WX -- --
WDir VRB VRB
WSpd 0 0
WGst -- --

Raw TAF
KFLL 130252Z 1303/1406 25009KT P6SM FEW060 SCT070 SCT250
  FM130500 32008KT P6SM SKC
  FM132200 34005KT P6SM SKC
  FM140100 00000KT P6SM SKC


METAR Board
Radar Display
Forecast Discussion

FOR SITUATIONAL AWARENESS. NOT TO BE USED FOR FLIGHT PLANNING PURPOSES.